createdAt,value
2023-05-05T00:00:59.171Z,95309.00
2023-05-05T00:01:59.201Z,95309.00
2023-05-05T00:02:59.262Z,95311.00
2023-05-05T00:03:59.283Z,95311.00
2023-05-05T00:04:59.158Z,95309.00
2023-05-05T00:05:59.170Z,95307.00
2023-05-05T00:06:59.150Z,95305.00
2023-05-05T00:07:59.142Z,95305.00
2023-05-05T00:08:59.132Z,95305.00
2023-05-05T00:09:59.152Z,95305.00
2023-05-05T00:10:59.127Z,95303.00
2023-05-05T00:11:59.096Z,95303.00
2023-05-05T00:12:59.121Z,95303.00
2023-05-05T00:13:59.105Z,95303.00
2023-05-05T00:14:59.127Z,95303.00
2023-05-05T00:15:59.121Z,95305.00
2023-05-05T00:16:59.129Z,95303.00
2023-05-05T00:17:59.088Z,95305.00
2023-05-05T00:18:59.060Z,95303.00
2023-05-05T00:19:59.082Z,95301.00
2023-05-05T00:20:59.076Z,95303.00
2023-05-05T00:21:59.081Z,95305.00
2023-05-05T00:22:59.055Z,95305.00
2023-05-05T00:23:59.041Z,95307.00
2023-05-05T00:24:59.044Z,95305.00
2023-05-05T00:25:59.014Z,95303.00
2023-05-05T00:26:59.028Z,95301.00
2023-05-05T00:27:59.022Z,95303.00
2023-05-05T00:28:59.015Z,95305.00
2023-05-05T00:29:58.993Z,95305.00
2023-05-05T00:30:59.025Z,95303.00
2023-05-05T00:31:59.008Z,95303.00
2023-05-05T00:32:59.005Z,95301.00
2023-05-05T00:33:58.987Z,95303.00
2023-05-05T00:34:58.997Z,95303.00
2023-05-05T00:35:59.031Z,95303.00
2023-05-05T00:36:58.974Z,95305.00
2023-05-05T00:37:58.939Z,95307.00
2023-05-05T00:38:58.938Z,95305.00
2023-05-05T00:39:58.940Z,95307.00
2023-05-05T00:40:58.964Z,95305.00
2023-05-05T00:41:58.923Z,95305.00
2023-05-05T00:42:58.938Z,95309.00
2023-05-05T00:43:58.934Z,95307.00
2023-05-05T00:44:58.908Z,95309.00
2023-05-05T00:45:58.999Z,95311.00
2023-05-05T00:46:58.906Z,95311.00
2023-05-05T00:47:58.934Z,95311.00
2023-05-05T00:48:58.906Z,95311.00
2023-05-05T00:49:58.874Z,95309.00
2023-05-05T00:50:58.885Z,95307.00
2023-05-05T00:51:58.865Z,95307.00
2023-05-05T00:52:58.867Z,95307.00
2023-05-05T00:53:58.889Z,95307.00
2023-05-05T00:54:58.834Z,95307.00
2023-05-05T00:55:58.863Z,95305.00
2023-05-05T00:56:58.807Z,95309.00
2023-05-05T00:57:58.805Z,95307.00
2023-05-05T00:58:58.803Z,95307.00
2023-05-05T00:59:58.815Z,95305.00
2023-05-05T01:00:58.843Z,95305.00
2023-05-05T01:01:58.824Z,95305.00
2023-05-05T01:02:58.891Z,95305.00
2023-05-05T01:03:58.884Z,95305.00
2023-05-05T01:04:58.785Z,95307.00
2023-05-05T01:05:58.758Z,95305.00
2023-05-05T01:06:58.761Z,95303.00
2023-05-05T01:07:58.759Z,95301.00
2023-05-05T01:08:58.757Z,95301.00
2023-05-05T01:10:15.079Z,95303.00
2023-05-05T01:10:59.758Z,95301.00
2023-05-05T01:11:58.751Z,95301.00
2023-05-05T01:12:58.785Z,95303.00
2023-05-05T01:13:58.768Z,95301.00
2023-05-05T01:14:58.711Z,95299.00
2023-05-05T01:15:58.741Z,95301.00
2023-05-05T01:16:58.702Z,95303.00
2023-05-05T01:17:58.766Z,95301.00
2023-05-05T01:18:58.686Z,95301.00
2023-05-05T01:19:58.709Z,95303.00
2023-05-05T01:20:58.692Z,95301.00
2023-05-05T01:21:58.660Z,95303.00
2023-05-05T01:22:58.667Z,95301.00
2023-05-05T01:23:58.658Z,95303.00
2023-05-05T01:24:58.643Z,95303.00
2023-05-05T01:25:58.633Z,95305.00
2023-05-05T01:26:58.644Z,95309.00
2023-05-05T01:27:58.694Z,95307.00
2023-05-05T01:28:58.698Z,95307.00
2023-05-05T01:29:58.704Z,95309.00
2023-05-05T01:30:58.712Z,95307.00
2023-05-05T01:31:58.759Z,95307.00
2023-05-05T01:32:58.695Z,95307.00
2023-05-05T01:33:58.725Z,95307.00
2023-05-05T01:34:58.704Z,95309.00
2023-05-05T01:35:58.757Z,95309.00
2023-05-05T01:36:58.711Z,95311.00
2023-05-05T01:37:58.738Z,95313.00
2023-05-05T01:38:58.757Z,95315.00
2023-05-05T01:39:58.751Z,95315.00
2023-05-05T01:40:58.791Z,95309.00
2023-05-05T01:41:58.743Z,95315.00
2023-05-05T01:42:58.770Z,95309.00
2023-05-05T01:43:58.887Z,95309.00
2023-05-05T01:44:58.970Z,95309.00
2023-05-05T01:45:59.102Z,95315.00
2023-05-05T01:46:59.055Z,95311.00
2023-05-05T01:47:59.120Z,95309.00
2023-05-05T01:48:59.096Z,95313.00
2023-05-05T01:49:59.113Z,95313.00
2023-05-05T01:50:59.101Z,95311.00
2023-05-05T01:51:59.178Z,95313.00
2023-05-05T01:52:59.169Z,95311.00
2023-05-05T01:53:59.160Z,95309.00
2023-05-05T01:54:59.192Z,95309.00
2023-05-05T01:55:59.198Z,95309.00
2023-05-05T01:56:59.210Z,95311.00
2023-05-05T01:57:59.280Z,95315.00
2023-05-05T01:58:59.262Z,95317.00
2023-05-05T01:59:59.307Z,95319.00
2023-05-05T02:00:59.348Z,95319.00
2023-05-05T02:01:59.312Z,95319.00
2023-05-05T02:02:59.368Z,95317.00
2023-05-05T02:03:59.371Z,95313.00
2023-05-05T02:04:59.491Z,95313.00
2023-05-05T02:05:59.520Z,95313.00
2023-05-05T02:06:59.546Z,95313.00
2023-05-05T02:07:59.496Z,95317.00
2023-05-05T02:08:59.504Z,95317.00
2023-05-05T02:09:59.512Z,95319.00
2023-05-05T02:10:59.524Z,95321.00
2023-05-05T02:11:59.511Z,95321.00
2023-05-05T02:12:59.565Z,95317.00
2023-05-05T02:13:59.628Z,95317.00
2023-05-05T02:14:59.635Z,95321.00
2023-05-05T02:15:59.780Z,95319.00
2023-05-05T02:16:59.842Z,95323.00
2023-05-05T02:17:59.967Z,95323.00
2023-05-05T02:18:59.948Z,95323.00
2023-05-05T02:19:59.970Z,95323.00
2023-05-05T02:20:59.958Z,95325.00
2023-05-05T02:21:59.992Z,95321.00
2023-05-05T02:23:00.024Z,95323.00
2023-05-05T02:24:00.141Z,95325.00
2023-05-05T02:25:00.188Z,95325.00
2023-05-05T02:26:00.195Z,95327.00
2023-05-05T02:27:00.197Z,95325.00
2023-05-05T02:28:00.254Z,95323.00
2023-05-05T02:29:00.245Z,95325.00
2023-05-05T02:30:00.244Z,95327.00
2023-05-05T02:31:00.419Z,95328.00
2023-05-05T02:32:00.350Z,95330.00
2023-05-05T02:33:00.422Z,95328.00
2023-05-05T02:34:00.378Z,95325.00
2023-05-05T02:35:00.398Z,95323.00
2023-05-05T02:36:00.430Z,95323.00
2023-05-05T02:37:00.519Z,95325.00
2023-05-05T02:38:00.528Z,95327.00
2023-05-05T02:39:00.531Z,95327.00
2023-05-05T02:40:00.532Z,95330.00
2023-05-05T02:41:00.585Z,95332.00
2023-05-05T02:42:00.582Z,95334.00
2023-05-05T02:43:00.623Z,95334.00
2023-05-05T02:44:00.619Z,95328.00
2023-05-05T02:45:00.612Z,95332.00
2023-05-05T02:46:00.695Z,95330.00
2023-05-05T02:47:00.663Z,95328.00
2023-05-05T02:48:00.666Z,95330.00
2023-05-05T02:49:00.669Z,95332.00
2023-05-05T02:50:00.696Z,95332.00
2023-05-05T02:51:00.705Z,95332.00
2023-05-05T02:52:00.703Z,95334.00
2023-05-05T02:53:00.720Z,95334.00
2023-05-05T02:54:00.711Z,95336.00
2023-05-05T02:55:00.849Z,95332.00
2023-05-05T02:56:01.773Z,95334.00
2023-05-05T02:57:00.743Z,95334.00
2023-05-05T02:58:00.781Z,95332.00
2023-05-05T02:59:00.773Z,95332.00
2023-05-05T03:00:00.821Z,95330.00
2023-05-05T03:01:00.828Z,95332.00
2023-05-05T03:02:00.841Z,95332.00
2023-05-05T03:03:00.985Z,95332.00
2023-05-05T03:04:00.876Z,95336.00
2023-05-05T03:05:00.887Z,95338.00
2023-05-05T03:06:00.864Z,95340.00
2023-05-05T03:07:00.867Z,95340.00
2023-05-05T03:08:00.891Z,95336.00
2023-05-05T03:09:00.905Z,95338.00
2023-05-05T03:10:00.885Z,95338.00
2023-05-05T03:11:00.934Z,95338.00
2023-05-05T03:12:00.929Z,95336.00
2023-05-05T03:13:01.084Z,95334.00
2023-05-05T03:14:01.011Z,95336.00
2023-05-05T03:15:01.025Z,95336.00
2023-05-05T03:16:01.080Z,95334.00
2023-05-05T03:17:01.064Z,95336.00
2023-05-05T03:18:01.121Z,95336.00
2023-05-05T03:19:01.105Z,95338.00
2023-05-05T03:20:04.754Z,95338.00
2023-05-05T03:21:01.100Z,95336.00
2023-05-05T03:22:01.104Z,95336.00
2023-05-05T03:23:01.104Z,95338.00
2023-05-05T03:24:01.084Z,95338.00
2023-05-05T03:25:01.067Z,95336.00
2023-05-05T03:26:01.083Z,95334.00
2023-05-05T03:27:01.049Z,95336.00
2023-05-05T03:28:01.032Z,95336.00
2023-05-05T03:29:01.058Z,95336.00
2023-05-05T03:30:01.037Z,95334.00
2023-05-05T03:31:01.014Z,95334.00
2023-05-05T03:32:01.118Z,95332.00
2023-05-05T03:33:01.095Z,95334.00
2023-05-05T03:34:01.014Z,95334.00
2023-05-05T03:35:00.999Z,95338.00
2023-05-05T03:36:01.004Z,95338.00
2023-05-05T03:37:01.003Z,95334.00
2023-05-05T03:38:00.979Z,95338.00
2023-05-05T03:39:00.991Z,95336.00
2023-05-05T03:40:00.967Z,95338.00
2023-05-05T03:41:00.948Z,95338.00
2023-05-05T03:42:00.964Z,95340.00
2023-05-05T03:43:00.952Z,95338.00
2023-05-05T03:44:00.926Z,95340.00
2023-05-05T03:45:00.949Z,95336.00
2023-05-05T03:46:00.953Z,95336.00
2023-05-05T03:47:00.923Z,95338.00
2023-05-05T03:48:00.936Z,95338.00
2023-05-05T03:49:00.939Z,95334.00
2023-05-05T03:50:00.937Z,95334.00
2023-05-05T03:51:00.919Z,95334.00
2023-05-05T03:52:00.885Z,95334.00
2023-05-05T03:53:00.901Z,95334.00
2023-05-05T03:54:00.881Z,95334.00
2023-05-05T03:55:00.909Z,95336.00
2023-05-05T03:56:02.020Z,95338.00
2023-05-05T03:57:00.850Z,95338.00
2023-05-05T03:58:00.860Z,95336.00
2023-05-05T03:59:00.941Z,95334.00
2023-05-05T04:00:00.854Z,95332.00
2023-05-05T04:01:00.871Z,95332.00
2023-05-05T04:02:00.862Z,95332.00
2023-05-05T04:03:00.961Z,95332.00
2023-05-05T04:04:00.876Z,95336.00
2023-05-05T04:05:00.832Z,95334.00
2023-05-05T04:06:00.813Z,95336.00
2023-05-05T04:07:00.782Z,95336.00
2023-05-05T04:08:00.806Z,95338.00
2023-05-05T04:09:00.803Z,95338.00
2023-05-05T04:10:00.800Z,95336.00
2023-05-05T04:11:00.781Z,95336.00
2023-05-05T04:12:00.789Z,95336.00
2023-05-05T04:13:00.909Z,95336.00
2023-05-05T04:14:00.753Z,95336.00
2023-05-05T04:15:00.768Z,95334.00
2023-05-05T04:16:00.783Z,95334.00
2023-05-05T04:17:00.750Z,95334.00
2023-05-05T04:18:00.771Z,95336.00
2023-05-05T04:19:00.756Z,95338.00
2023-05-05T04:20:00.749Z,95340.00
2023-05-05T04:21:00.705Z,95340.00
2023-05-05T04:22:00.730Z,95340.00
2023-05-05T04:23:00.687Z,95344.00
2023-05-05T04:24:00.705Z,95336.00
2023-05-05T04:25:00.696Z,95342.00
2023-05-05T04:26:00.700Z,95340.00
2023-05-05T04:27:00.691Z,95334.00
2023-05-05T04:28:00.650Z,95334.00
2023-05-05T04:29:00.680Z,95334.00
2023-05-05T04:30:00.659Z,95336.00
2023-05-05T04:31:00.708Z,95336.00
2023-05-05T04:32:00.661Z,95338.00
2023-05-05T04:33:00.648Z,95340.00
2023-05-05T04:34:00.648Z,95342.00
2023-05-05T04:35:00.646Z,95342.00
2023-05-05T04:36:00.629Z,95344.00
2023-05-05T04:37:00.654Z,95346.00
2023-05-05T04:38:00.598Z,95346.00
2023-05-05T04:39:00.687Z,95348.00
2023-05-05T04:40:00.606Z,95348.00
2023-05-05T04:41:00.588Z,95346.00
2023-05-05T04:42:00.592Z,95344.00
2023-05-05T04:43:00.609Z,95348.00
2023-05-05T04:44:00.587Z,95346.00
2023-05-05T04:45:00.557Z,95348.00
2023-05-05T04:46:00.572Z,95348.00
2023-05-05T04:47:00.532Z,95350.00
2023-05-05T04:48:00.614Z,95350.00
2023-05-05T04:49:00.555Z,95352.00
2023-05-05T04:50:00.552Z,95354.00
2023-05-05T04:51:00.570Z,95356.00
2023-05-05T04:52:00.506Z,95352.00
2023-05-05T04:53:00.514Z,95352.00
2023-05-05T04:54:00.519Z,95352.00
2023-05-05T04:55:00.478Z,95354.00
2023-05-05T04:56:00.510Z,95352.00
2023-05-05T04:57:00.483Z,95358.00
2023-05-05T04:58:00.500Z,95356.00
2023-05-05T04:59:00.440Z,95360.00
2023-05-05T05:00:00.469Z,95362.00
2023-05-05T05:01:00.486Z,95364.00
2023-05-05T05:02:00.550Z,95366.00
2023-05-05T05:03:00.639Z,95364.00
2023-05-05T05:04:00.647Z,95368.00
2023-05-05T05:05:00.580Z,95368.00
2023-05-05T05:06:00.677Z,95368.00
2023-05-05T05:07:00.703Z,95370.00
2023-05-05T05:08:00.731Z,95370.00
2023-05-05T05:09:00.761Z,95368.00
2023-05-05T05:10:00.842Z,95370.00
2023-05-05T05:11:00.840Z,95372.00
2023-05-05T05:12:00.897Z,95372.00
2023-05-05T05:13:00.932Z,95372.00
2023-05-05T05:14:00.979Z,95372.00
2023-05-05T05:15:01.017Z,95374.00
2023-05-05T05:16:01.112Z,95376.00
2023-05-05T05:17:01.102Z,95374.00
2023-05-05T05:18:01.136Z,95372.00
2023-05-05T05:19:01.743Z,95374.00
2023-05-05T05:20:01.240Z,95374.00
2023-05-05T05:21:01.222Z,95370.00
2023-05-05T05:22:01.255Z,95372.00
2023-05-05T05:23:01.312Z,95366.00
2023-05-05T05:24:01.344Z,95366.00
2023-05-05T05:25:01.398Z,95366.00
2023-05-05T05:26:01.393Z,95368.00
2023-05-05T05:27:01.464Z,95370.00
2023-05-05T05:28:09.028Z,95368.00
2023-05-05T05:29:02.480Z,95368.00
2023-05-05T05:30:01.537Z,95370.00
2023-05-05T05:31:01.550Z,95368.00
2023-05-05T05:32:01.492Z,95370.00
2023-05-05T05:33:01.489Z,95368.00
2023-05-05T05:34:01.440Z,95368.00
2023-05-05T05:35:01.473Z,95372.00
2023-05-05T05:36:01.422Z,95370.00
2023-05-05T05:37:01.444Z,95372.00
2023-05-05T05:38:01.416Z,95370.00
2023-05-05T05:39:01.427Z,95368.00
2023-05-05T05:40:01.434Z,95372.00
2023-05-05T05:41:01.455Z,95374.00
2023-05-05T05:42:01.474Z,95374.00
2023-05-05T05:43:01.564Z,95374.00
2023-05-05T05:44:01.603Z,95374.00
2023-05-05T05:45:01.667Z,95372.00
2023-05-05T05:46:01.755Z,95372.00
2023-05-05T05:47:01.753Z,95372.00
2023-05-05T05:48:01.834Z,95370.00
2023-05-05T05:49:01.820Z,95376.00
2023-05-05T05:50:01.867Z,95376.00
2023-05-05T05:51:01.898Z,95376.00
2023-05-05T05:52:02.074Z,95376.00
2023-05-05T05:53:01.948Z,95376.00
2023-05-05T05:54:01.975Z,95378.00
2023-05-05T05:55:02.084Z,95374.00
2023-05-05T05:56:02.000Z,95378.00
2023-05-05T05:57:02.035Z,95374.00
2023-05-05T05:58:03.030Z,95378.00
2023-05-05T05:59:02.061Z,95380.00
2023-05-05T06:00:02.392Z,95382.00
2023-05-05T06:01:02.066Z,95382.00
2023-05-05T06:02:02.133Z,95380.00
2023-05-05T06:03:02.144Z,95382.00
2023-05-05T06:04:02.175Z,95383.00
2023-05-05T06:05:02.106Z,95380.00
2023-05-05T06:06:02.156Z,95378.00
2023-05-05T06:07:02.562Z,95378.00
2023-05-05T06:08:02.267Z,95378.00
2023-05-05T06:09:02.239Z,95378.00
2023-05-05T06:10:14.568Z,95380.00
2023-05-05T06:11:03.241Z,95378.00
2023-05-05T06:12:02.576Z,95378.00
2023-05-05T06:13:02.234Z,95376.00
2023-05-05T06:14:02.206Z,95376.00
2023-05-05T06:15:02.191Z,95378.00
2023-05-05T06:16:02.285Z,95378.00
2023-05-05T06:17:02.172Z,95376.00
2023-05-05T06:18:02.215Z,95376.00
2023-05-05T06:19:02.202Z,95376.00
2023-05-05T06:20:02.232Z,95378.00
2023-05-05T06:21:02.303Z,95376.00
2023-05-05T06:22:03.069Z,95376.00
2023-05-05T06:23:02.418Z,95376.00
2023-05-05T06:24:02.465Z,95372.00
2023-05-05T06:25:02.520Z,95372.00
2023-05-05T06:26:02.600Z,95372.00
2023-05-05T06:27:02.666Z,95370.00
2023-05-05T06:28:02.690Z,95368.00
2023-05-05T06:29:02.741Z,95370.00
2023-05-05T06:30:02.871Z,95368.00
2023-05-05T06:31:02.874Z,95370.00
2023-05-05T06:32:02.936Z,95366.00
2023-05-05T06:33:02.993Z,95366.00
2023-05-05T06:34:03.032Z,95366.00
2023-05-05T06:35:03.074Z,95368.00
2023-05-05T06:36:03.152Z,95364.00
2023-05-05T06:37:03.593Z,95362.00
2023-05-05T06:38:03.229Z,95360.00
2023-05-05T06:39:03.280Z,95360.00
2023-05-05T06:40:03.294Z,95358.00
2023-05-05T06:41:03.359Z,95356.00
2023-05-05T06:42:03.407Z,95356.00
2023-05-05T06:43:03.461Z,95354.00
2023-05-05T06:44:03.481Z,95350.00
2023-05-05T06:45:03.514Z,95352.00
2023-05-05T06:46:03.551Z,95350.00
2023-05-05T06:47:04.153Z,95352.00
2023-05-05T06:48:03.696Z,95352.00
2023-05-05T06:49:03.641Z,95350.00
2023-05-05T06:50:03.744Z,95346.00
2023-05-05T06:51:03.754Z,95342.00
2023-05-05T06:52:03.812Z,95346.00
2023-05-05T06:53:03.788Z,95344.00
2023-05-05T06:54:03.809Z,95342.00
2023-05-05T06:55:03.926Z,95342.00
2023-05-05T06:56:03.881Z,95342.00
2023-05-05T06:57:03.899Z,95344.00
2023-05-05T06:58:03.931Z,95346.00
2023-05-05T06:59:03.952Z,95348.00
2023-05-05T07:00:03.988Z,95350.00
2023-05-05T07:01:04.085Z,95348.00
2023-05-05T07:02:04.118Z,95346.00
2023-05-05T07:03:04.147Z,95344.00
2023-05-05T07:04:04.167Z,95344.00
2023-05-05T07:05:04.185Z,95344.00
2023-05-05T07:06:04.230Z,95342.00
2023-05-05T07:07:04.260Z,95342.00
2023-05-05T07:08:04.216Z,95340.00
2023-05-05T07:09:04.266Z,95342.00
2023-05-05T07:10:04.310Z,95342.00
2023-05-05T07:11:04.367Z,95342.00
2023-05-05T07:12:04.330Z,95338.00
2023-05-05T07:13:04.420Z,95338.00
2023-05-05T07:14:04.391Z,95338.00
2023-05-05T07:15:12.394Z,95336.00
2023-05-05T07:16:05.434Z,95336.00
2023-05-05T07:17:04.372Z,95334.00
2023-05-05T07:18:04.411Z,95332.00
2023-05-05T07:19:04.361Z,95327.00
2023-05-05T07:20:04.372Z,95327.00
2023-05-05T07:21:04.464Z,95321.00
2023-05-05T07:22:04.391Z,95319.00
2023-05-05T07:23:04.347Z,95325.00
2023-05-05T07:24:04.368Z,95319.00
2023-05-05T07:25:04.332Z,95321.00
2023-05-05T07:26:04.346Z,95319.00
2023-05-05T07:27:04.410Z,95321.00
2023-05-05T07:28:04.347Z,95317.00
2023-05-05T07:29:04.357Z,95319.00
2023-05-05T07:30:09.115Z,95321.00
2023-05-05T07:31:05.289Z,95317.00
2023-05-05T07:32:04.335Z,95317.00
2023-05-05T07:33:04.363Z,95319.00
2023-05-05T07:34:04.256Z,95313.00
2023-05-05T07:35:04.275Z,95313.00
2023-05-05T07:36:04.264Z,95311.00
2023-05-05T07:37:04.245Z,95311.00
2023-05-05T07:38:04.237Z,95309.00
2023-05-05T07:39:07.668Z,95311.00
2023-05-05T07:40:04.216Z,95309.00
2023-05-05T07:41:04.222Z,95309.00
2023-05-05T07:42:04.624Z,95307.00
2023-05-05T07:43:04.357Z,95307.00
2023-05-05T07:44:04.227Z,95303.00
2023-05-05T07:45:04.235Z,95301.00
2023-05-05T07:46:04.249Z,95301.00
2023-05-05T07:47:04.615Z,95299.00
2023-05-05T07:48:04.251Z,95299.00
2023-05-05T07:49:04.223Z,95297.00
2023-05-05T07:50:04.216Z,95291.00
2023-05-05T07:51:04.192Z,95291.00
2023-05-05T07:52:04.168Z,95287.00
2023-05-05T07:53:13.523Z,95285.00
2023-05-05T07:54:05.170Z,95285.00
2023-05-05T07:55:04.112Z,95283.00
2023-05-05T07:56:04.136Z,95283.00
2023-05-05T07:57:04.116Z,95281.00
2023-05-05T07:58:04.147Z,95281.00
2023-05-05T07:59:04.171Z,95283.00
2023-05-05T08:00:04.081Z,95281.00
2023-05-05T08:01:04.098Z,95281.00
2023-05-05T08:02:04.077Z,95278.00
2023-05-05T08:03:04.275Z,95278.00
2023-05-05T08:04:04.236Z,95278.00
2023-05-05T08:05:04.080Z,95278.00
2023-05-05T08:06:04.069Z,95280.00
2023-05-05T08:07:04.057Z,95281.00
2023-05-05T08:08:04.062Z,95281.00
2023-05-05T08:09:04.041Z,95280.00
2023-05-05T08:10:04.032Z,95280.00
2023-05-05T08:11:04.041Z,95278.00
2023-05-05T08:12:04.026Z,95278.00
2023-05-05T08:13:04.025Z,95276.00
2023-05-05T08:14:04.019Z,95274.00
2023-05-05T08:15:04.288Z,95274.00
2023-05-05T08:16:04.119Z,95272.00
2023-05-05T08:17:04.115Z,95268.00
2023-05-05T08:18:04.175Z,95270.00
2023-05-05T08:19:06.252Z,95266.00
2023-05-05T08:20:05.144Z,95266.00
2023-05-05T08:21:04.103Z,95264.00
2023-05-05T08:22:04.108Z,95262.00
2023-05-05T08:23:04.119Z,95260.00
2023-05-05T08:24:04.104Z,95262.00
2023-05-05T08:25:04.114Z,95262.00
2023-05-05T08:26:04.109Z,95260.00
2023-05-05T08:27:04.111Z,95260.00
2023-05-05T08:28:04.098Z,95258.00
2023-05-05T08:29:04.093Z,95256.00
2023-05-05T08:30:04.093Z,95256.00
2023-05-05T08:31:04.152Z,95254.00
2023-05-05T08:32:04.070Z,95252.00
2023-05-05T08:33:04.126Z,95248.00
2023-05-05T08:34:04.062Z,95248.00
2023-05-05T08:35:04.029Z,95246.00
2023-05-05T08:36:04.036Z,95246.00
2023-05-05T08:37:04.061Z,95240.00
2023-05-05T08:38:04.027Z,95242.00
2023-05-05T08:39:04.045Z,95238.00
2023-05-05T08:40:04.070Z,95238.00
2023-05-05T08:41:04.082Z,95236.00
2023-05-05T08:42:04.137Z,95233.00
2023-05-05T08:43:04.148Z,95233.00
2023-05-05T08:44:04.180Z,95229.00
2023-05-05T08:45:04.209Z,95225.00
2023-05-05T08:46:04.225Z,95227.00
2023-05-05T08:47:04.784Z,95225.00
2023-05-05T08:48:04.385Z,95225.00
2023-05-05T08:49:04.333Z,95225.00
2023-05-05T08:50:04.383Z,95225.00
2023-05-05T08:51:05.568Z,95219.00
2023-05-05T08:52:04.443Z,95215.00
2023-05-05T08:53:04.550Z,95217.00
2023-05-05T08:54:04.533Z,95213.00
2023-05-05T08:55:04.588Z,95213.00
2023-05-05T08:56:04.633Z,95217.00
2023-05-05T08:57:04.673Z,95215.00
2023-05-05T08:58:04.702Z,95213.00
2023-05-05T08:59:04.762Z,95215.00
2023-05-05T09:00:04.838Z,95217.00
2023-05-05T09:01:04.918Z,95213.00
2023-05-05T09:02:04.955Z,95211.00
2023-05-05T09:03:05.280Z,95209.00
2023-05-05T09:04:05.046Z,95205.00
2023-05-05T09:05:05.164Z,95203.00
2023-05-05T09:06:05.135Z,95203.00
2023-05-05T09:07:05.190Z,95201.00
2023-05-05T09:08:05.670Z,95201.00
2023-05-05T09:09:05.282Z,95201.00
2023-05-05T09:10:05.337Z,95201.00
2023-05-05T09:11:05.357Z,95199.00
2023-05-05T09:12:05.402Z,95199.00
2023-05-05T09:13:05.556Z,95197.00
2023-05-05T09:14:05.553Z,95195.00
2023-05-05T09:15:05.771Z,95195.00
2023-05-05T09:16:05.665Z,95191.00
2023-05-05T09:17:05.708Z,95187.00
2023-05-05T09:18:05.784Z,95189.00
2023-05-05T09:19:05.769Z,95184.00
2023-05-05T09:20:05.824Z,95187.00
2023-05-05T09:21:05.875Z,95187.00
2023-05-05T09:22:05.945Z,95182.00
2023-05-05T09:23:06.141Z,95182.00
2023-05-05T09:24:08.631Z,95184.00
2023-05-05T09:25:06.374Z,95180.00
2023-05-05T09:26:06.036Z,95178.00
2023-05-05T09:27:06.066Z,95180.00
2023-05-05T09:28:06.147Z,95176.00
2023-05-05T09:29:06.034Z,95174.00
2023-05-05T09:30:06.043Z,95172.00
2023-05-05T09:31:06.056Z,95172.00
2023-05-05T09:32:06.036Z,95168.00
2023-05-05T09:33:06.079Z,95170.00
2023-05-05T09:34:05.998Z,95168.00
2023-05-05T09:35:06.149Z,95168.00
2023-05-05T09:36:05.983Z,95164.00
2023-05-05T09:37:06.220Z,95164.00
2023-05-05T09:38:05.992Z,95162.00
2023-05-05T09:39:05.961Z,95158.00
2023-05-05T09:40:06.009Z,95160.00
2023-05-05T09:41:05.945Z,95148.00
2023-05-05T09:42:05.964Z,95156.00
2023-05-05T09:43:06.171Z,95148.00
2023-05-05T09:44:05.930Z,95146.00
2023-05-05T09:45:06.017Z,95144.00
2023-05-05T09:46:05.970Z,95140.00
2023-05-05T09:47:18.130Z,95144.00
2023-05-05T09:48:07.191Z,95142.00
2023-05-05T09:49:05.906Z,95142.00
2023-05-05T09:50:06.010Z,95138.00
2023-05-05T09:51:05.861Z,95140.00
2023-05-05T09:52:05.898Z,95142.00
2023-05-05T09:53:05.893Z,95138.00
2023-05-05T09:54:05.863Z,95138.00
2023-05-05T09:55:05.869Z,95134.00
2023-05-05T09:56:05.837Z,95138.00
2023-05-05T09:57:05.874Z,95134.00
2023-05-05T09:58:06.156Z,95138.00
2023-05-05T09:59:05.898Z,95134.00
2023-05-05T10:00:06.027Z,95133.00
2023-05-05T10:01:06.062Z,95131.00
2023-05-05T10:02:06.073Z,95131.00
2023-05-05T10:03:06.174Z,95129.00
2023-05-05T10:04:06.150Z,95127.00
2023-05-05T10:05:06.292Z,95127.00
2023-05-05T10:06:06.291Z,95127.00
2023-05-05T10:07:06.398Z,95125.00
2023-05-05T10:08:06.660Z,95125.00
2023-05-05T10:09:06.440Z,95119.00
2023-05-05T10:10:06.574Z,95121.00
2023-05-05T10:11:06.515Z,95119.00
2023-05-05T10:12:06.536Z,95121.00
2023-05-05T10:13:06.653Z,95119.00
2023-05-05T10:14:06.628Z,95121.00
2023-05-05T10:15:06.728Z,95119.00
2023-05-05T10:16:07.748Z,95115.00
2023-05-05T10:17:06.761Z,95113.00
2023-05-05T10:18:08.470Z,95109.00
2023-05-05T10:19:06.853Z,95107.00
2023-05-05T10:20:07.074Z,95103.00
2023-05-05T10:21:06.956Z,95103.00
2023-05-05T10:22:06.983Z,95107.00
2023-05-05T10:23:07.176Z,95101.00
2023-05-05T10:24:07.038Z,95101.00
2023-05-05T10:25:07.091Z,95101.00
2023-05-05T10:26:07.138Z,95099.00
2023-05-05T10:27:07.167Z,95097.00
2023-05-05T10:28:07.199Z,95095.00
2023-05-05T10:29:07.208Z,95095.00
2023-05-05T10:30:07.563Z,95093.00
2023-05-05T10:31:16.527Z,95093.00
2023-05-05T10:32:27.129Z,95089.00
2023-05-05T10:34:07.318Z,95086.00
2023-05-05T10:35:07.250Z,95082.00
2023-05-05T10:36:07.258Z,95080.00
2023-05-05T10:37:07.234Z,95080.00
2023-05-05T10:38:07.247Z,95074.00
2023-05-05T10:39:07.302Z,95072.00
2023-05-05T10:40:07.609Z,95074.00
2023-05-05T10:41:07.217Z,95072.00
2023-05-05T10:42:07.256Z,95066.00
2023-05-05T10:43:07.200Z,95070.00
2023-05-05T10:44:07.194Z,95066.00
2023-05-05T10:45:07.217Z,95066.00
2023-05-05T10:46:07.241Z,95062.00
2023-05-05T10:47:07.211Z,95062.00
2023-05-05T10:48:07.239Z,95058.00
2023-05-05T10:49:07.182Z,95056.00
2023-05-05T10:50:07.372Z,95054.00
2023-05-05T10:51:07.194Z,95052.00
2023-05-05T10:52:07.176Z,95050.00
2023-05-05T10:53:07.160Z,95050.00
2023-05-05T10:54:07.202Z,95048.00
2023-05-05T10:55:07.247Z,95046.00
2023-05-05T10:56:07.143Z,95044.00
2023-05-05T10:57:07.103Z,95044.00
2023-05-05T10:58:07.128Z,95044.00
2023-05-05T10:59:07.138Z,95039.00
2023-05-05T11:00:07.357Z,95040.00
2023-05-05T11:01:07.101Z,95037.00
2023-05-05T11:02:07.073Z,95035.00
2023-05-05T11:03:07.153Z,95033.00
2023-05-05T11:04:07.151Z,95029.00
2023-05-05T11:05:07.118Z,95031.00
2023-05-05T11:06:07.098Z,95027.00
2023-05-05T11:07:07.066Z,95023.00
2023-05-05T11:08:07.067Z,95023.00
2023-05-05T11:09:07.043Z,95023.00
2023-05-05T11:10:07.287Z,95015.00
2023-05-05T11:11:07.031Z,95017.00
2023-05-05T11:12:07.082Z,95013.00
2023-05-05T11:13:07.102Z,95013.00
2023-05-05T11:14:07.007Z,95011.00
2023-05-05T11:15:07.039Z,95013.00
2023-05-05T11:16:07.016Z,95007.00
2023-05-05T11:17:07.008Z,95003.00
2023-05-05T11:18:07.959Z,95001.00
2023-05-05T11:19:06.978Z,94997.00
2023-05-05T11:20:07.147Z,94995.00
2023-05-05T11:21:06.993Z,94995.00
2023-05-05T11:22:06.968Z,94992.00
2023-05-05T11:23:07.051Z,94990.00
2023-05-05T11:24:06.982Z,94988.00
2023-05-05T11:25:06.946Z,94986.00
2023-05-05T11:26:06.942Z,94986.00
2023-05-05T11:27:07.068Z,94988.00
2023-05-05T11:28:07.202Z,94984.00
2023-05-05T11:29:06.917Z,94980.00
2023-05-05T11:30:07.123Z,94982.00
2023-05-05T11:31:06.941Z,94978.00
2023-05-05T11:32:06.915Z,94978.00
2023-05-05T11:33:07.365Z,94978.00
2023-05-05T11:34:06.920Z,94976.00
2023-05-05T11:35:06.891Z,94976.00
2023-05-05T11:36:07.358Z,94974.00
2023-05-05T11:37:06.911Z,94970.00
2023-05-05T11:38:06.922Z,94970.00
2023-05-05T11:39:06.912Z,94968.00
2023-05-05T11:40:07.000Z,94966.00
2023-05-05T11:41:06.849Z,94960.00
2023-05-05T11:42:10.488Z,94956.00
2023-05-05T11:43:06.879Z,94956.00
2023-05-05T11:44:06.848Z,94952.00
2023-05-05T11:45:06.846Z,94954.00
2023-05-05T11:46:06.918Z,94948.00